createdAt,value
2022-08-26T00:02:00.461Z,19.83
2022-08-26T00:04:29.267Z,19.81
2022-08-26T00:06:58.060Z,19.95
2022-08-26T00:09:27.098Z,20.01
2022-08-26T00:11:55.690Z,19.86
2022-08-26T00:14:31.249Z,19.67
2022-08-26T00:17:00.053Z,19.63
2022-08-26T00:19:28.671Z,19.69
2022-08-26T00:21:56.866Z,19.66
2022-08-26T00:24:25.043Z,19.74
2022-08-26T00:26:53.829Z,19.81
2022-08-26T00:29:22.439Z,19.87
2022-08-26T00:31:52.387Z,19.71
2022-08-26T00:34:20.562Z,19.77
2022-08-26T00:36:51.736Z,19.77
2022-08-26T00:39:21.056Z,19.71
2022-08-26T00:41:50.116Z,19.74
2022-08-26T00:44:19.169Z,19.74
2022-08-26T00:46:52.603Z,19.73
2022-08-26T00:49:25.833Z,19.55
2022-08-26T00:51:56.680Z,19.55
2022-08-26T00:54:28.088Z,19.52
2022-08-26T00:57:01.006Z,19.67
2022-08-26T00:59:33.006Z,19.63
2022-08-26T01:02:03.303Z,19.66
2022-08-26T01:04:34.031Z,19.77
2022-08-26T01:07:02.791Z,19.74
2022-08-26T01:09:31.613Z,19.73
2022-08-26T01:12:02.987Z,19.93
2022-08-26T01:14:33.875Z,19.90
2022-08-26T01:17:06.117Z,19.90
2022-08-26T01:19:41.553Z,19.73
2022-08-26T01:22:12.896Z,19.67
2022-08-26T01:24:42.785Z,19.76
2022-08-26T01:27:13.759Z,19.83
2022-08-26T01:29:44.058Z,19.67
2022-08-26T01:32:15.721Z,19.69
2022-08-26T01:34:43.830Z,19.73
2022-08-26T01:37:15.498Z,19.71
2022-08-26T01:39:49.566Z,19.73
2022-08-26T01:42:19.252Z,19.78
2022-08-26T01:44:53.229Z,19.70
2022-08-26T01:47:24.580Z,19.69
2022-08-26T01:49:56.247Z,19.78
2022-08-26T01:52:27.994Z,19.76
2022-08-26T01:54:59.937Z,19.73
2022-08-26T01:57:28.460Z,19.67
2022-08-26T01:59:59.465Z,19.70
2022-08-26T02:02:27.942Z,19.77
2022-08-26T02:04:59.857Z,19.73
2022-08-26T02:07:29.153Z,19.67
2022-08-26T02:09:58.729Z,19.62
2022-08-26T02:12:27.967Z,19.66
2022-08-26T02:14:59.868Z,19.55
2022-08-26T02:17:34.855Z,19.56
2022-08-26T02:20:03.964Z,19.70
2022-08-26T02:22:34.266Z,19.55
2022-08-26T02:25:13.027Z,19.49
2022-08-26T02:27:42.057Z,19.52
2022-08-26T02:30:14.160Z,19.58
2022-08-26T02:32:46.413Z,19.52
2022-08-26T02:35:20.049Z,19.45
2022-08-26T02:37:49.460Z,19.42
2022-08-26T02:40:22.894Z,19.28
2022-08-26T02:42:53.054Z,19.42
2022-08-26T02:45:24.637Z,19.32
2022-08-26T02:47:53.389Z,19.36
2022-08-26T02:50:22.663Z,19.24
2022-08-26T02:52:50.815Z,19.26
2022-08-26T02:55:20.732Z,19.34
2022-08-26T02:57:53.216Z,19.21
2022-08-26T03:00:21.710Z,19.21
2022-08-26T03:02:52.280Z,19.32
2022-08-26T03:05:21.960Z,19.28
2022-08-26T03:07:52.693Z,19.26
2022-08-26T03:10:24.100Z,19.22
2022-08-26T03:12:54.482Z,19.25
2022-08-26T03:15:22.664Z,19.26
2022-08-26T03:17:50.845Z,19.10
2022-08-26T03:20:19.554Z,19.17
2022-08-26T03:22:48.105Z,19.00
2022-08-26T03:25:18.221Z,19.01
2022-08-26T03:27:48.254Z,18.86
2022-08-26T03:30:34.931Z,18.94
2022-08-26T03:33:03.054Z,19.04
2022-08-26T03:35:32.230Z,18.76
2022-08-26T03:38:00.998Z,18.81
2022-08-26T03:40:30.197Z,18.79
2022-08-26T03:42:59.813Z,18.80
2022-08-26T03:45:28.106Z,18.89
2022-08-26T03:47:57.807Z,18.94
2022-08-26T03:50:27.238Z,18.93
2022-08-26T03:52:56.049Z,18.87
2022-08-26T03:55:26.549Z,18.89
2022-08-26T03:57:55.884Z,18.81
2022-08-26T04:00:25.961Z,18.73
2022-08-26T04:02:54.293Z,18.73
2022-08-26T04:05:24.550Z,18.74
2022-08-26T04:07:53.178Z,18.79
2022-08-26T04:10:28.783Z,18.72
2022-08-26T04:12:59.220Z,18.65
2022-08-26T04:15:29.419Z,18.60
2022-08-26T04:17:57.750Z,18.65
2022-08-26T04:20:26.394Z,18.67
2022-08-26T04:22:54.856Z,18.55
2022-08-26T04:25:24.332Z,18.57
2022-08-26T04:27:52.731Z,18.56
2022-08-26T04:30:21.304Z,18.63
2022-08-26T04:32:51.225Z,18.63
2022-08-26T04:35:22.781Z,18.65
2022-08-26T04:37:54.438Z,18.55
2022-08-26T04:40:22.670Z,18.53
2022-08-26T04:42:50.763Z,18.59
2022-08-26T04:45:19.424Z,18.62
2022-08-26T04:47:56.412Z,18.62
2022-08-26T04:50:25.830Z,18.70
2022-08-26T04:52:55.416Z,18.66
2022-08-26T04:55:38.232Z,18.72
2022-08-26T04:58:10.148Z,18.84
2022-08-26T05:00:38.904Z,18.87
2022-08-26T05:03:10.454Z,18.70
2022-08-26T05:05:43.245Z,18.67
2022-08-26T05:08:12.685Z,18.53
2022-08-26T05:10:43.644Z,18.62
2022-08-26T05:13:15.190Z,18.65
2022-08-26T05:15:45.211Z,18.74
2022-08-26T05:18:16.421Z,18.84
2022-08-26T05:20:46.835Z,18.86
2022-08-26T05:23:15.484Z,18.87
2022-08-26T05:25:45.661Z,18.96
2022-08-26T05:28:16.108Z,18.96
2022-08-26T05:30:44.510Z,19.12
2022-08-26T05:33:14.484Z,19.24
2022-08-26T05:35:43.698Z,19.45
2022-08-26T05:38:15.645Z,19.67
2022-08-26T05:40:46.598Z,19.73
2022-08-26T05:43:15.075Z,19.91
2022-08-26T05:45:45.493Z,19.91
2022-08-26T05:48:17.302Z,20.00
2022-08-26T05:50:48.784Z,19.97
2022-08-26T05:53:20.274Z,19.95
2022-08-26T05:55:50.368Z,19.94
2022-08-26T05:58:20.285Z,20.01
2022-08-26T06:00:57.286Z,20.00
2022-08-26T06:03:26.881Z,20.12
2022-08-26T06:05:55.178Z,20.17
2022-08-26T06:08:23.247Z,20.35
2022-08-26T06:10:54.641Z,20.62
2022-08-26T06:13:26.844Z,20.69
2022-08-26T06:15:56.534Z,20.83
2022-08-26T06:18:27.345Z,20.92
2022-08-26T06:20:58.489Z,21.05
2022-08-26T06:23:45.790Z,21.21
2022-08-26T06:26:14.792Z,21.41
2022-08-26T06:28:45.479Z,21.59
2022-08-26T06:31:14.340Z,21.83
2022-08-26T06:33:42.512Z,22.06
2022-08-26T06:36:17.301Z,22.28
2022-08-26T06:38:47.711Z,22.53
2022-08-26T06:41:16.631Z,22.64
2022-08-26T06:43:45.816Z,22.77
2022-08-26T06:46:16.598Z,22.77
2022-08-26T06:48:44.974Z,22.81
2022-08-26T06:51:16.285Z,22.81
2022-08-26T06:53:47.072Z,22.83
2022-08-26T06:56:18.995Z,22.84
2022-08-26T06:58:47.032Z,22.92
2022-08-26T07:01:20.834Z,23.05
2022-08-26T07:03:50.581Z,23.05
2022-08-26T07:06:20.813Z,23.07
2022-08-26T07:08:49.746Z,23.28
2022-08-26T07:11:19.001Z,23.41
2022-08-26T07:13:47.550Z,23.32
2022-08-26T07:16:17.711Z,23.47
2022-08-26T07:18:46.693Z,23.45
2022-08-26T07:21:17.266Z,23.47
2022-08-26T07:23:48.975Z,23.67
2022-08-26T07:26:20.211Z,23.71
2022-08-26T07:28:50.626Z,23.84
2022-08-26T07:31:23.745Z,23.98
2022-08-26T07:33:52.169Z,24.05
2022-08-26T07:36:21.630Z,24.11
2022-08-26T07:38:52.105Z,24.33
2022-08-26T07:41:22.828Z,24.41
2022-08-26T07:43:51.470Z,24.53
2022-08-26T07:46:20.841Z,24.80
2022-08-26T07:48:56.416Z,24.84
2022-08-26T07:51:24.963Z,24.99
2022-08-26T07:53:55.334Z,24.96
2022-08-26T07:56:24.133Z,24.98
2022-08-26T07:58:54.360Z,25.01
2022-08-26T08:01:24.141Z,25.11
2022-08-26T08:03:53.991Z,24.99
2022-08-26T08:06:27.060Z,24.83
2022-08-26T08:08:57.681Z,24.61
2022-08-26T08:11:27.278Z,24.59
2022-08-26T08:13:56.992Z,24.47
2022-08-26T08:16:26.950Z,24.18
2022-08-26T08:18:56.494Z,24.01
2022-08-26T08:21:25.548Z,23.85
2022-08-26T08:23:55.915Z,23.87
2022-08-26T08:26:27.220Z,24.04
2022-08-26T08:28:57.051Z,24.05
2022-08-26T08:34:15.054Z,24.35
2022-08-26T08:36:43.427Z,24.55
2022-08-26T08:39:11.769Z,24.80
2022-08-26T08:41:54.753Z,24.95
2022-08-26T08:46:56.800Z,25.14
2022-08-26T08:49:26.953Z,25.04
2022-08-26T08:52:02.590Z,25.14
2022-08-26T08:54:33.969Z,25.09
2022-08-26T08:57:12.266Z,25.04
2022-08-26T08:59:50.923Z,25.14
2022-08-26T09:02:25.838Z,25.11
2022-08-26T09:05:04.531Z,25.26
2022-08-26T09:07:37.632Z,25.12
2022-08-26T09:10:27.733Z,25.01
2022-08-26T09:12:57.233Z,25.18
2022-08-26T09:15:30.207Z,25.23
2022-08-26T09:18:17.139Z,25.37
2022-08-26T09:20:52.992Z,25.59
2022-08-26T09:23:21.119Z,25.81
2022-08-26T09:25:51.414Z,25.97
2022-08-26T09:28:23.160Z,25.91
2022-08-26T09:31:03.549Z,26.01
2022-08-26T09:33:33.993Z,26.33
2022-08-26T09:36:23.058Z,26.41
2022-08-26T09:38:53.522Z,26.47
2022-08-26T09:41:31.550Z,26.29
2022-08-26T09:44:20.724Z,26.26
2022-08-26T09:46:56.601Z,26.04
2022-08-26T09:49:31.653Z,26.11
2022-08-26T09:52:12.799Z,26.14
2022-08-26T09:54:42.161Z,26.26
2022-08-26T09:57:20.417Z,26.35
2022-08-26T09:59:51.052Z,26.57
2022-08-26T10:02:36.915Z,26.60
2022-08-26T10:05:09.839Z,26.68
2022-08-26T10:07:42.905Z,26.73
2022-08-26T10:10:15.989Z,26.81
2022-08-26T10:12:50.710Z,26.94
2022-08-26T10:15:21.119Z,27.16
2022-08-26T10:17:56.624Z,26.67
2022-08-26T10:20:28.033Z,26.99
2022-08-26T10:23:02.155Z,27.16
2022-08-26T10:25:34.443Z,27.50
2022-08-26T10:28:10.807Z,27.60
2022-08-26T10:30:47.068Z,27.57
2022-08-26T10:33:18.179Z,27.95
2022-08-26T10:35:51.994Z,27.91
2022-08-26T10:38:29.479Z,28.13
2022-08-26T10:41:03.320Z,28.19
2022-08-26T10:43:42.545Z,27.88
2022-08-26T10:46:17.205Z,28.12
2022-08-26T10:48:49.105Z,27.88
2022-08-26T10:51:24.026Z,28.02
2022-08-26T10:53:55.943Z,28.13
2022-08-26T10:56:39.156Z,28.23
2022-08-26T10:59:14.114Z,28.64
2022-08-26T11:01:50.946Z,28.92
2022-08-26T11:04:43.400Z,29.49
2022-08-26T11:07:37.372Z,29.86
2022-08-26T11:10:09.910Z,30.33
2022-08-26T11:13:01.062Z,29.65
2022-08-26T11:16:11.204Z,29.16
2022-08-26T11:18:48.637Z,28.96
2022-08-26T11:21:44.860Z,28.67
2022-08-26T11:24:48.816Z,28.84
2022-08-26T11:28:03.773Z,28.36
2022-08-26T11:30:56.913Z,28.53
2022-08-26T11:33:59.518Z,28.22
2022-08-26T11:36:59.749Z,28.33
2022-08-26T11:39:33.370Z,28.67
2022-08-26T11:42:20.323Z,28.75
2022-08-26T11:44:49.850Z,28.95
2022-08-26T11:47:26.757Z,29.08
2022-08-26T11:50:26.916Z,29.26
2022-08-26T11:52:59.176Z,29.33
2022-08-26T11:55:27.529Z,29.20
2022-08-26T11:58:00.114Z,29.22
2022-08-26T12:00:33.376Z,29.13
2022-08-26T12:03:06.914Z,29.31
2022-08-26T12:05:44.555Z,29.31
2022-08-26T12:08:18.072Z,29.23
2022-08-26T12:10:49.115Z,29.43
2022-08-26T12:13:24.075Z,29.40
2022-08-26T12:15:56.617Z,29.18
2022-08-26T12:18:28.878Z,29.92
2022-08-26T12:21:03.221Z,29.89
2022-08-26T12:23:44.621Z,29.63
2022-08-26T12:26:21.734Z,29.18
2022-08-26T12:28:54.017Z,28.90
2022-08-26T12:31:32.533Z,28.51
2022-08-26T12:34:04.171Z,28.57
2022-08-26T12:36:40.146Z,28.49
2022-08-26T12:39:11.597Z,28.37
2022-08-26T12:41:43.389Z,27.96
2022-08-26T12:44:35.319Z,27.96
2022-08-26T12:47:08.409Z,27.99
2022-08-26T12:49:37.833Z,28.01
2022-08-26T12:52:08.094Z,27.87
2022-08-26T12:54:56.701Z,28.35
2022-08-26T12:57:29.059Z,28.64
2022-08-26T13:00:30.719Z,28.88
2022-08-26T13:03:00.315Z,29.27
2022-08-26T13:05:33.043Z,29.18
2022-08-26T13:08:15.369Z,28.82
2022-08-26T13:10:46.964Z,28.58
2022-08-26T13:13:15.326Z,28.47
2022-08-26T13:15:43.394Z,28.27
2022-08-26T13:18:11.503Z,28.49
2022-08-26T13:20:44.688Z,28.92
2022-08-26T13:23:14.768Z,28.94
2022-08-26T13:25:45.161Z,28.36
2022-08-26T13:28:13.194Z,27.64
2022-08-26T13:30:43.517Z,27.68
2022-08-26T13:33:12.579Z,27.65
2022-08-26T13:35:42.827Z,28.74
2022-08-26T13:38:33.349Z,28.79
2022-08-26T13:41:04.097Z,28.39
2022-08-26T13:43:32.638Z,28.69
2022-08-26T13:46:01.527Z,30.91
2022-08-26T13:48:31.473Z,31.51
2022-08-26T13:51:00.320Z,31.90
2022-08-26T13:53:31.138Z,31.46
2022-08-26T13:56:05.943Z,32.58
2022-08-26T13:58:35.036Z,33.15
2022-08-26T14:01:03.191Z,33.25
2022-08-26T14:03:31.591Z,32.70
2022-08-26T14:05:59.820Z,33.82
2022-08-26T14:08:28.267Z,33.81
2022-08-26T14:10:56.512Z,33.39
2022-08-26T14:13:26.214Z,32.94
2022-08-26T14:15:56.682Z,33.53
2022-08-26T14:18:30.272Z,33.87
2022-08-26T14:20:58.929Z,33.51
2022-08-26T14:23:27.481Z,34.13
2022-08-26T14:25:55.661Z,32.75
2022-08-26T14:30:59.335Z,30.92
2022-08-26T14:33:32.329Z,31.58
2022-08-26T14:36:14.479Z,32.02
2022-08-26T14:38:42.521Z,33.01
2022-08-26T14:41:11.270Z,33.71
2022-08-26T14:43:48.011Z,33.12
2022-08-26T14:46:17.947Z,32.99
2022-08-26T14:48:46.045Z,32.92
2022-08-26T14:51:14.311Z,32.92
2022-08-26T14:54:08.139Z,32.01
2022-08-26T14:56:38.266Z,33.20
2022-08-26T14:59:09.389Z,33.01
2022-08-26T15:01:37.751Z,32.65
2022-08-26T15:04:05.883Z,32.32
2022-08-26T15:06:35.648Z,32.34
2022-08-26T15:09:04.705Z,31.40
2022-08-26T15:11:32.971Z,30.82
2022-08-26T15:14:01.201Z,31.19
2022-08-26T15:16:30.737Z,28.75
2022-08-26T15:18:59.199Z,28.72
2022-08-26T15:21:27.647Z,30.09
2022-08-26T15:23:55.748Z,29.71
2022-08-26T15:26:24.274Z,28.96
2022-08-26T15:28:53.761Z,28.57
2022-08-26T15:31:30.901Z,29.53
2022-08-26T15:34:02.724Z,28.74
2022-08-26T15:36:32.629Z,28.20
2022-08-26T15:39:02.355Z,27.88
2022-08-26T15:41:30.661Z,28.36
2022-08-26T15:44:07.704Z,30.09
2022-08-26T15:46:38.416Z,30.44
2022-08-26T15:49:09.139Z,29.49
2022-08-26T15:51:51.305Z,28.46
2022-08-26T15:54:22.172Z,28.30
2022-08-26T15:56:53.135Z,27.67
2022-08-26T15:59:23.625Z,27.03
2022-08-26T16:01:51.841Z,27.33
2022-08-26T16:04:21.722Z,26.44
2022-08-26T16:06:51.638Z,25.54
2022-08-26T16:09:20.746Z,24.52
2022-08-26T16:11:48.761Z,24.30
2022-08-26T16:14:18.152Z,23.98
2022-08-26T16:16:47.128Z,23.60
2022-08-26T16:19:15.476Z,23.15
2022-08-26T16:21:45.276Z,22.70
2022-08-26T16:24:14.150Z,22.08
2022-08-26T16:26:44.016Z,21.78
2022-08-26T16:29:14.130Z,21.21
2022-08-26T16:31:42.854Z,20.85
2022-08-26T16:34:11.255Z,20.91
2022-08-26T16:36:40.884Z,20.90
2022-08-26T16:39:11.074Z,20.67
2022-08-26T16:41:39.208Z,20.22
2022-08-26T16:44:08.910Z,20.07
2022-08-26T16:46:37.002Z,20.79
2022-08-26T16:49:05.306Z,21.39
2022-08-26T16:51:38.072Z,22.28
2022-08-26T16:54:07.834Z,23.01
2022-08-26T16:56:37.906Z,23.09
2022-08-26T16:59:07.904Z,23.22
2022-08-26T17:01:36.069Z,23.04
2022-08-26T17:04:04.658Z,23.00
2022-08-26T17:06:32.727Z,23.29
2022-08-26T17:09:00.726Z,23.41
2022-08-26T17:11:28.659Z,23.36
2022-08-26T17:13:58.069Z,23.36
2022-08-26T17:16:27.253Z,23.05
2022-08-26T17:18:56.572Z,22.87
2022-08-26T17:21:25.562Z,22.59
2022-08-26T17:23:54.179Z,22.39
2022-08-26T17:26:22.647Z,22.33
2022-08-26T17:28:51.582Z,22.15
2022-08-26T17:31:21.736Z,22.21
2022-08-26T17:33:53.389Z,22.09
2022-08-26T17:36:28.068Z,22.19
2022-08-26T17:38:57.538Z,22.14
2022-08-26T17:41:26.791Z,22.08
2022-08-26T17:43:54.918Z,22.09
2022-08-26T17:46:25.113Z,22.14
2022-08-26T17:48:53.213Z,22.09
2022-08-26T17:51:23.620Z,21.66
2022-08-26T17:53:52.698Z,21.73
2022-08-26T17:56:25.553Z,21.52
2022-08-26T17:58:55.127Z,21.60
2022-08-26T18:01:28.023Z,21.80
2022-08-26T18:04:00.238Z,21.91
2022-08-26T18:06:31.231Z,21.98
2022-08-26T18:08:59.754Z,21.93
2022-08-26T18:11:28.473Z,21.93
2022-08-26T18:13:56.558Z,21.83
2022-08-26T18:16:26.077Z,21.90
2022-08-26T18:18:54.713Z,21.98
2022-08-26T18:21:25.321Z,21.86
2022-08-26T18:23:54.319Z,21.84
2022-08-26T18:26:25.367Z,21.64
2022-08-26T18:28:54.025Z,21.61
2022-08-26T18:31:22.250Z,21.60
2022-08-26T18:33:51.857Z,21.73
2022-08-26T18:36:21.922Z,21.74
2022-08-26T18:38:51.059Z,21.70
2022-08-26T18:41:20.721Z,21.59
2022-08-26T18:43:50.476Z,21.71
2022-08-26T18:46:19.368Z,21.69
2022-08-26T18:48:50.763Z,21.70
2022-08-26T18:51:23.265Z,21.67
2022-08-26T18:53:51.821Z,21.76
2022-08-26T18:56:19.982Z,21.59
2022-08-26T18:58:48.302Z,21.53
2022-08-26T19:01:17.018Z,21.60
2022-08-26T19:03:45.804Z,21.69
2022-08-26T19:06:17.761Z,21.66
2022-08-26T19:08:49.926Z,21.60
2022-08-26T19:11:32.593Z,21.57
2022-08-26T19:14:07.594Z,21.56
2022-08-26T19:16:36.494Z,21.56
2022-08-26T19:19:05.047Z,21.57
2022-08-26T19:21:34.296Z,21.54
2022-08-26T19:24:07.004Z,21.42
2022-08-26T19:26:35.546Z,21.49
2022-08-26T19:29:03.859Z,21.52
2022-08-26T19:31:32.346Z,21.49
2022-08-26T19:34:00.462Z,21.50
2022-08-26T19:36:29.472Z,21.49
2022-08-26T19:38:57.657Z,21.52
2022-08-26T19:41:36.811Z,21.41
2022-08-26T19:44:08.372Z,21.35
2022-08-26T19:46:40.007Z,21.24
2022-08-26T19:49:08.427Z,21.19
2022-08-26T19:51:37.728Z,21.15
2022-08-26T19:54:06.138Z,21.14
2022-08-26T19:56:35.798Z,21.14
2022-08-26T19:59:03.906Z,21.08
2022-08-26T20:01:32.187Z,21.09
2022-08-26T20:04:00.291Z,21.05
2022-08-26T20:06:28.393Z,20.97
2022-08-26T20:08:56.538Z,20.98
2022-08-26T20:11:25.048Z,20.91
2022-08-26T20:13:55.268Z,20.87
2022-08-26T20:16:23.482Z,20.84
2022-08-26T20:19:09.386Z,20.81
2022-08-26T20:21:39.785Z,20.77
2022-08-26T20:24:12.495Z,20.80
2022-08-26T20:26:42.497Z,20.73
2022-08-26T20:29:13.659Z,20.79
2022-08-26T20:31:44.144Z,20.80
2022-08-26T20:34:13.273Z,20.79
2022-08-26T20:36:42.542Z,20.84
2022-08-26T20:39:11.757Z,20.83
2022-08-26T20:41:40.245Z,20.66
2022-08-26T20:44:09.403Z,20.64
2022-08-26T20:46:39.510Z,20.62
2022-08-26T20:49:08.376Z,20.50
2022-08-26T20:51:37.396Z,20.53
2022-08-26T20:54:07.029Z,20.46
2022-08-26T20:56:35.266Z,20.40
2022-08-26T20:59:04.236Z,20.49
2022-08-26T21:01:35.392Z,20.55
2022-08-26T21:04:07.477Z,20.55
2022-08-26T21:06:38.244Z,20.45
2022-08-26T21:09:08.407Z,20.35
2022-08-26T21:11:37.360Z,20.31
2022-08-26T21:14:16.220Z,20.25
2022-08-26T21:16:46.233Z,20.11
2022-08-26T21:19:18.018Z,20.17
2022-08-26T21:21:46.231Z,20.17
2022-08-26T21:24:14.775Z,20.17
2022-08-26T21:26:43.281Z,20.14
2022-08-26T21:29:13.502Z,20.24
2022-08-26T21:31:46.045Z,20.33
2022-08-26T21:34:17.642Z,20.32
2022-08-26T21:36:46.335Z,20.29
2022-08-26T21:39:15.038Z,20.24
2022-08-26T21:41:44.453Z,20.35
2022-08-26T21:44:14.329Z,20.28
2022-08-26T21:46:44.119Z,20.12
2022-08-26T21:49:12.823Z,20.22
2022-08-26T21:51:44.814Z,20.29
2022-08-26T21:54:14.176Z,20.26
2022-08-26T21:56:46.644Z,20.26
2022-08-26T21:59:16.617Z,20.25
2022-08-26T22:01:44.754Z,20.22
2022-08-26T22:04:12.884Z,20.25
2022-08-26T22:06:44.531Z,20.24
2022-08-26T22:09:14.780Z,20.24
2022-08-26T22:11:44.112Z,20.28
2022-08-26T22:14:13.103Z,20.28
2022-08-26T22:16:42.342Z,20.26
2022-08-26T22:19:20.090Z,20.24
2022-08-26T22:21:51.531Z,20.17
2022-08-26T22:24:21.880Z,20.10
2022-08-26T22:26:50.809Z,20.05
2022-08-26T22:29:19.756Z,19.95
2022-08-26T22:31:48.062Z,20.03
2022-08-26T22:34:19.633Z,20.10
2022-08-26T22:36:50.499Z,20.05
2022-08-26T22:39:22.187Z,20.07
2022-08-26T22:41:50.864Z,20.08
2022-08-26T22:44:21.041Z,20.11
2022-08-26T22:46:51.065Z,20.08
2022-08-26T22:49:19.650Z,19.94
2022-08-26T22:51:49.439Z,19.97
2022-08-26T22:54:18.440Z,19.93
2022-08-26T22:56:46.753Z,20.03
2022-08-26T22:59:16.260Z,19.95
2022-08-26T23:01:47.035Z,19.87
2022-08-26T23:04:15.731Z,19.97
2022-08-26T23:06:47.751Z,20.03
2022-08-26T23:09:18.441Z,19.97
2022-08-26T23:11:47.817Z,20.07
2022-08-26T23:14:17.548Z,19.88
2022-08-26T23:16:45.398Z,19.87
2022-08-26T23:19:15.191Z,19.76
2022-08-26T23:21:43.008Z,19.76
2022-08-26T23:24:11.721Z,19.83
2022-08-26T23:26:43.123Z,19.71
2022-08-26T23:29:13.607Z,19.77
2022-08-26T23:31:42.933Z,19.74
2022-08-26T23:34:28.840Z,19.76
2022-08-26T23:36:58.020Z,19.81
2022-08-26T23:39:26.941Z,19.77
2022-08-26T23:41:56.908Z,19.83
2022-08-26T23:44:26.482Z,19.78
2022-08-26T23:46:54.713Z,19.67
2022-08-26T23:49:22.817Z,19.60
2022-08-26T23:52:08.343Z,19.56
2022-08-26T23:54:36.360Z,19.55
2022-08-26T23:57:06.742Z,19.45
2022-08-26T23:59:35.025Z,19.46
